Time;durP1;ratioP1;P1;durP2;ratioP2;P2;SDS_P1;SDS_P2;PMS_P1;PMS_P2;Temp;Humidity;BMP_temperature;BMP_pressure;BME280_temperature;BME280_humidity;BME280_pressure;Samples;Min_cycle;Max_cycle;Signal;HPM_P1;HPM_P2
2023/01/02 08:00:13;;;;;;;22.63;12.48;;;5.90;99.90;;;;;;6276672;23;20070;-80
2023/01/02 08:02:48;;;;;;;30.38;12.40;;;5.80;99.90;;;;;;6251145;23;20070;-77
2023/01/02 08:05:23;;;;;;;32.05;12.23;;;5.80;99.90;;;;;;6275974;22;20069;-77
2023/01/02 08:08:00;;;;;;;32.00;11.70;;;5.60;99.90;;;;;;6251257;23;20058;-83
2023/01/02 08:10:36;;;;;;;34.45;12.05;;;5.70;99.90;;;;;;6225496;23;20010;-79
2023/01/02 08:13:07;;;;;;;29.73;12.80;;;5.80;99.90;;;;;;6250743;23;20062;-80
2023/01/02 08:15:46;;;;;;;24.70;10.75;;;5.90;99.90;;;;;;6252033;23;20050;-81
2023/01/02 08:18:21;;;;;;;21.58;11.18;;;5.90;99.90;;;;;;6274865;23;20431;-82
2023/01/02 08:20:57;;;;;;;30.95;12.93;;;6.00;99.90;;;;;;6240654;22;20055;-84
2023/01/02 08:23:31;;;;;;;30.13;13.02;;;6.00;99.90;;;;;;6267455;23;20054;-81
2023/01/02 08:26:22;;;;;;;28.13;11.77;;;5.90;99.90;;;;;;6252903;23;20017;-79
2023/01/02 08:28:58;;;;;;;27.67;10.95;;;5.80;99.90;;;;;;6339210;23;20069;-80
2023/01/02 08:31:29;;;;;;;23.45;10.35;;;5.70;99.90;;;;;;6343704;23;20048;-81
2023/01/02 08:34:03;;;;;;;28.25;11.00;;;5.80;99.90;;;;;;6306467;23;20099;-81
2023/01/02 08:36:34;;;;;;;23.37;10.83;;;5.80;99.90;;;;;;6294092;23;20278;-83
2023/01/02 08:39:08;;;;;;;25.23;11.43;;;5.70;99.90;;;;;;6333188;23;20036;-85
2023/01/02 08:41:41;;;;;;;25.27;9.77;;;5.70;99.90;;;;;;6295276;23;20591;-81
2023/01/02 08:44:12;;;;;;;25.60;10.85;;;5.70;99.90;;;;;;6306267;23;20080;-81
2023/01/02 08:46:43;;;;;;;27.42;14.43;;;5.70;99.90;;;;;;6354157;23;20080;-81
2023/01/02 08:49:16;;;;;;;40.28;19.17;;;5.70;99.90;;;;;;6341027;23;20006;-79
2023/01/02 08:51:47;;;;;;;27.20;12.85;;;5.80;99.90;;;;;;6319904;23;20060;-78
2023/01/02 08:54:19;;;;;;;31.55;14.98;;;5.80;99.90;;;;;;6330482;23;20511;-79
2023/01/02 08:56:50;;;;;;;22.55;11.85;;;5.80;99.90;;;;;;6265297;23;20081;-79
2023/01/02 08:59:26;;;;;;;17.95;10.98;;;5.80;99.90;;;;;;6317849;23;20066;-80
2023/01/02 09:01:57;;;;;;;34.80;11.38;;;5.70;99.90;;;;;;6262070;23;20086;-81
2023/01/02 09:04:32;;;;;;;27.42;10.57;;;5.50;99.90;;;;;;6335074;23;20321;-81
2023/01/02 09:07:03;;;;;;;21.00;10.43;;;5.40;99.90;;;;;;6275059;23;20362;-82
2023/01/02 09:09:35;;;;;;;26.00;10.35;;;5.50;99.90;;;;;;6273900;23;20054;-84
2023/01/02 09:12:06;;;;;;;23.80;11.02;;;5.50;99.90;;;;;;6241389;22;20017;-86
2023/01/02 09:14:43;;;;;;;26.20;11.10;;;5.70;99.90;;;;;;6266865;23;20312;-86
2023/01/02 09:17:14;;;;;;;24.08;10.43;;;5.80;99.90;;;;;;6192171;23;20074;-80
2023/01/02 09:19:48;;;;;;;21.38;11.20;;;5.80;99.90;;;;;;6213153;23;20050;-78
2023/01/02 09:22:25;;;;;;;21.92;10.48;;;5.70;99.90;;;;;;6250164;23;20070;-78
2023/01/02 09:25:11;;;;;;;17.02;9.68;;;5.80;99.90;;;;;;6260248;23;20058;-77
2023/01/02 09:27:45;;;;;;;18.45;10.63;;;5.70;99.90;;;;;;6256594;23;20058;-78
2023/01/02 09:30:19;;;;;;;22.35;10.02;;;5.80;99.90;;;;;;6169310;23;20493;-82
2023/01/02 09:32:53;;;;;;;17.88;9.93;;;5.90;99.90;;;;;;6206975;23;20018;-80
2023/01/02 09:35:27;;;;;;;18.60;10.65;;;5.80;99.90;;;;;;6200525;23;20046;-75
2023/01/02 09:37:58;;;;;;;30.45;10.25;;;6.00;99.90;;;;;;6204853;23;20129;-81
2023/01/02 09:40:34;;;;;;;22.02;10.65;;;6.10;99.90;;;;;;6238585;23;20066;-77
2023/01/02 09:43:12;;;;;;;26.40;10.70;;;6.20;99.90;;;;;;6289633;23;20337;-79
2023/01/02 09:45:54;;;;;;;25.30;11.30;;;6.20;99.90;;;;;;6307189;23;20066;-78
2023/01/02 09:48:30;;;;;;;18.05;10.77;;;6.30;99.90;;;;;;6231070;23;20069;-75
2023/01/02 09:51:04;;;;;;;18.63;10.73;;;6.30;99.90;;;;;;6255343;23;20325;-82
2023/01/02 09:53:36;;;;;;;52.92;10.88;;;6.20;99.90;;;;;;6239672;23;20017;-79
2023/01/02 09:56:18;;;;;;;22.00;10.48;;;6.20;99.90;;;;;;6270995;23;20011;-79
2023/01/02 09:59:05;;;;;;;24.08;11.63;;;6.10;99.90;;;;;;6255124;23;20007;-79
2023/01/02 10:02:14;;;;;;;36.55;11.43;;;6.10;99.90;;;;;;6257526;23;20548;-81
2023/01/02 10:05:02;;;;;;;18.42;10.43;;;6.20;99.90;;;;;;6105147;23;20584;-76
2023/01/02 10:07:41;;;;;;;24.17;9.93;;;6.20;99.90;;;;;;6124387;24;20071;-79
2023/01/02 10:10:18;;;;;;;19.40;11.40;;;6.20;99.90;;;;;;6113980;23;20126;-79
2023/01/02 10:13:01;;;;;;;21.08;10.27;;;6.30;99.90;;;;;;6098284;23;20092;-79
2023/01/02 10:15:35;;;;;;;18.70;11.05;;;6.00;99.90;;;;;;6158686;23;20056;-81
2023/01/02 10:18:33;;;;;;;31.90;11.60;;;5.90;99.90;;;;;;6164828;24;20099;-80
2023/01/02 10:21:21;;;;;;;20.02;10.57;;;6.00;99.90;;;;;;6193022;23;20055;-79
2023/01/02 10:24:17;;;;;;;19.08;10.50;;;6.20;99.90;;;;;;6165352;24;20063;-79
2023/01/02 10:26:53;;;;;;;21.05;11.23;;;6.30;99.90;;;;;;6110891;23;20496;-82
2023/01/02 10:29:27;;;;;;;28.27;10.20;;;6.10;99.90;;;;;;6163932;24;20369;-78
2023/01/02 10:32:08;;;;;;;23.80;11.13;;;6.10;99.90;;;;;;6150830;23;20087;-79
2023/01/02 10:35:02;;;;;;;24.00;10.80;;;6.10;99.90;;;;;;6110367;23;20080;-77
2023/01/02 10:37:36;;;;;;;22.05;11.55;;;6.20;99.90;;;;;;6108340;23;20084;-78
2023/01/02 10:40:15;;;;;;;20.88;10.90;;;6.20;99.90;;;;;;6123123;23;20099;-79
2023/01/02 10:42:52;;;;;;;25.20;11.52;;;6.20;99.90;;;;;;6233911;23;20413;-82
2023/01/02 10:45:23;;;;;;;39.42;10.70;;;6.30;99.90;;;;;;6204496;23;20066;-79
2023/01/02 10:47:57;;;;;;;21.45;10.88;;;6.30;99.90;;;;;;6254156;23;20054;-77
2023/01/02 10:50:35;;;;;;;21.45;10.63;;;6.30;99.90;;;;;;6255173;23;20058;-79
2023/01/02 10:53:20;;;;;;;27.73;10.50;;;6.30;99.90;;;;;;6281304;23;20039;-79
2023/01/02 10:55:51;;;;;;;20.63;10.15;;;6.20;99.90;;;;;;6255748;23;20059;-79
2023/01/02 10:58:28;;;;;;;19.15;9.88;;;6.10;99.90;;;;;;6257925;23;20492;-83
2023/01/02 11:01:17;;;;;;;17.63;8.80;;;6.10;99.90;;;;;;6356476;23;20058;-82
2023/01/02 11:04:12;;;;;;;21.13;9.95;;;5.90;99.90;;;;;;6267764;23;20074;-80
2023/01/02 11:07:00;;;;;;;24.48;11.13;;;6.00;99.90;;;;;;6161338;23;20085;-81
2023/01/02 11:09:37;;;;;;;22.23;10.48;;;5.90;99.90;;;;;;6258425;23;20054;-81
2023/01/02 11:12:20;;;;;;;18.98;10.27;;;6.00;99.90;;;;;;6253784;23;20061;-81
2023/01/02 11:15:19;;;;;;;20.90;10.32;;;6.00;99.90;;;;;;6253844;23;20077;-82
2023/01/02 11:17:56;;;;;;;32.10;10.15;;;5.70;99.90;;;;;;6234737;23;20007;-81
2023/01/02 11:20:36;;;;;;;24.13;9.20;;;5.70;99.90;;;;;;6246358;23;20062;-78
2023/01/02 11:23:15;;;;;;;20.10;10.13;;;5.70;99.90;;;;;;6202933;23;20097;-82
2023/01/02 11:25:47;;;;;;;22.30;11.13;;;5.80;99.90;;;;;;6221972;23;20019;-86
2023/01/02 11:28:22;;;;;;;23.23;10.27;;;5.70;99.90;;;;;;6204700;23;20066;-78
2023/01/02 11:31:03;;;;;;;21.63;10.18;;;5.60;99.90;;;;;;6233790;23;20003;-79
2023/01/02 11:33:36;;;;;;;18.90;11.13;;;5.70;99.90;;;;;;6277981;23;20066;-79
2023/01/02 11:36:10;;;;;;;19.73;10.20;;;5.80;99.90;;;;;;6219161;23;20085;-77
2023/01/02 11:39:02;;;;;;;21.30;10.45;;;5.80;99.90;;;;;;6193706;23;20073;-77
2023/01/02 11:45:15;;;;;;;19.63;9.73;;;6.00;99.90;;;;;;6116370;23;20068;-81
2023/01/02 11:47:57;;;;;;;16.40;9.55;;;6.00;99.90;;;;;;6269600;23;20077;-79
2023/01/02 11:50:35;;;;;;;18.05;10.32;;;5.90;99.90;;;;;;6277430;23;20061;-81
2023/01/02 11:53:12;;;;;;;30.52;10.15;;;6.00;99.90;;;;;;6253884;23;20058;-77
2023/01/02 11:56:06;;;;;;;16.73;9.43;;;6.10;99.90;;;;;;6252465;23;20058;-80
2023/01/02 11:59:05;;;;;;;21.13;10.02;;;6.20;99.90;;;;;;6277618;23;20087;-81
2023/01/02 12:02:02;;;;;;;17.58;9.85;;;6.30;99.90;;;;;;6253534;23;20488;-84
2023/01/02 12:04:36;;;;;;;18.48;10.32;;;6.40;99.90;;;;;;6267259;22;20097;-80
2023/01/02 12:07:39;;;;;;;16.20;9.63;;;6.30;99.90;;;;;;6301436;23;20070;-80
2023/01/02 12:10:24;;;;;;;18.33;10.57;;;6.20;99.90;;;;;;6278659;23;20054;-83
2023/01/02 12:13:36;;;;;;;16.05;9.77;;;6.30;99.90;;;;;;6253909;23;20027;-83
2023/01/02 12:19:55;;;;;;;15.27;9.27;;;6.10;99.90;;;;;;6278688;23;20054;-79
2023/01/02 12:22:48;;;;;;;14.20;8.10;;;6.20;99.90;;;;;;6278712;23;20090;-81
2023/01/02 12:28:50;;;;;;;12.43;7.93;;;6.30;99.90;;;;;;6277744;23;20247;-78
2023/01/02 12:31:24;;;;;;;14.20;9.13;;;6.50;99.90;;;;;;6277111;23;20014;-83
2023/01/02 12:34:32;;;;;;;14.60;8.77;;;6.60;99.90;;;;;;6253806;23;20346;-78
2023/01/02 12:37:31;;;;;;;15.95;9.45;;;6.80;99.90;;;;;;6301818;23;20054;-79
2023/01/02 12:40:37;;;;;;;14.20;8.05;;;6.70;99.90;;;;;;6254338;23;20066;-80
2023/01/02 12:43:35;;;;;;;14.38;8.65;;;6.20;99.90;;;;;;6281795;23;20055;-79
2023/01/02 12:46:27;;;;;;;17.05;9.25;;;5.90;99.90;;;;;;6277992;23;20513;-78
2023/01/02 12:49:39;;;;;;;17.10;10.00;;;6.00;99.90;;;;;;6251263;23;20058;-80
2023/01/02 12:52:22;;;;;;;17.95;9.15;;;6.00;99.90;;;;;;6189330;23;20062;-79
2023/01/02 12:55:37;;;;;;;21.60;8.98;;;6.10;99.90;;;;;;6228297;23;20082;-80
2023/01/02 12:58:42;;;;;;;17.88;9.00;;;6.10;99.90;;;;;;6228391;23;20054;-78
2023/01/02 13:01:21;;;;;;;15.15;9.38;;;6.10;99.90;;;;;;6275721;23;20054;-80
2023/01/02 13:04:03;;;;;;;15.25;8.98;;;6.10;99.90;;;;;;6228149;23;20081;-81
2023/01/02 13:06:37;;;;;;;14.82;9.25;;;6.20;99.90;;;;;;6216792;23;20070;-81
2023/01/02 13:09:23;;;;;;;19.73;9.90;;;5.80;99.90;;;;;;6225655;23;20069;-78
2023/01/02 13:12:17;;;;;;;18.05;10.05;;;5.90;99.90;;;;;;6234880;23;20011;-78
2023/01/02 13:14:59;;;;;;;19.13;9.23;;;5.90;99.90;;;;;;6267909;23;20612;-84
2023/01/02 13:17:57;;;;;;;18.95;9.30;;;6.00;99.90;;;;;;6245481;23;20498;-78
2023/01/02 13:20:52;;;;;;;17.90;9.57;;;6.00;99.90;;;;;;6218374;23;20020;-81
2023/01/02 13:23:39;;;;;;;14.93;8.05;;;6.00;99.90;;;;;;6195306;23;20074;-81
2023/01/02 13:26:17;;;;;;;17.38;8.77;;;5.90;99.90;;;;;;6252567;23;20379;-79
2023/01/02 13:29:17;;;;;;;14.23;8.27;;;6.00;99.90;;;;;;6277738;23;20054;-77
2023/01/02 13:31:53;;;;;;;24.88;10.00;;;6.10;99.90;;;;;;6277397;23;20281;-82
2023/01/02 13:34:29;;;;;;;17.55;11.20;;;6.00;99.90;;;;;;6254608;23;20062;-78
2023/01/02 13:37:06;;;;;;;20.30;10.13;;;5.90;99.90;;;;;;6256092;23;20308;-78
2023/01/02 13:39:43;;;;;;;24.30;11.18;;;5.90;99.90;;;;;;6254670;23;20050;-81
2023/01/02 13:45:23;;;;;;;21.85;10.98;;;6.00;99.90;;;;;;6278476;23;20050;-84
2023/01/02 13:48:00;;;;;;;22.88;11.05;;;5.90;99.90;;;;;;6278545;23;20057;-80
2023/01/02 13:50:33;;;;;;;21.35;11.07;;;5.60;99.90;;;;;;6292964;22;20081;-79
2023/01/02 13:53:10;;;;;;;23.15;10.98;;;5.70;99.90;;;;;;6279606;23;20267;-80
2023/01/02 13:55:42;;;;;;;20.40;10.25;;;5.60;99.90;;;;;;6217469;23;20102;-82
2023/01/02 13:58:21;;;;;;;22.38;9.93;;;5.70;99.90;;;;;;6253940;23;20066;-78
2023/01/02 14:00:57;;;;;;;20.92;9.73;;;5.60;99.90;;;;;;6277095;23;20050;-78
2023/01/02 14:03:31;;;;;;;16.35;9.48;;;5.40;99.90;;;;;;6276201;23;20066;-81
2023/01/02 14:06:27;;;;;;;35.33;9.65;;;5.50;99.90;;;;;;6291998;22;20089;-80
2023/01/02 14:09:04;;;;;;;17.25;10.35;;;5.30;99.90;;;;;;6276757;23;20070;-79
2023/01/02 14:12:17;;;;;;;18.80;10.93;;;5.20;99.90;;;;;;6252234;23;20336;-81
2023/01/02 14:14:54;;;;;;;17.58;9.88;;;5.10;99.90;;;;;;6247595;23;20443;-81
2023/01/02 14:17:47;;;;;;;33.08;12.35;;;5.40;99.90;;;;;;6276830;23;20046;-80
2023/01/02 14:20:29;;;;;;;19.92;10.68;;;5.50;99.90;;;;;;6275915;23;20054;-80
2023/01/02 14:23:07;;;;;;;27.33;11.57;;;5.50;99.90;;;;;;6299483;23;20058;-80
2023/01/02 14:25:48;;;;;;;19.13;10.60;;;5.50;99.90;;;;;;6252287;23;20153;-82
2023/01/02 14:28:29;;;;;;;20.05;10.27;;;5.40;99.90;;;;;;6252482;23;20050;-82
2023/01/02 14:31:18;;;;;;;21.63;8.82;;;5.30;99.90;;;;;;6252809;23;20058;-78
2023/01/02 14:33:57;;;;;;;19.70;9.40;;;5.50;99.90;;;;;;6276533;23;20054;-81
2023/01/02 14:36:51;;;;;;;19.17;10.77;;;5.60;99.90;;;;;;6236133;23;20521;-80
2023/01/02 14:39:23;;;;;;;24.65;9.73;;;5.70;99.90;;;;;;6265054;23;20066;-83
2023/01/02 14:45:03;;;;;;;27.88;9.82;;;5.40;99.90;;;;;;6275637;23;20098;-81
2023/01/02 14:47:42;;;;;;;19.30;9.65;;;5.50;99.90;;;;;;6278172;23;20085;-84
2023/01/02 14:50:28;;;;;;;23.95;10.05;;;5.50;99.90;;;;;;6276906;23;20086;-82
2023/01/02 14:53:44;;;;;;;15.80;9.10;;;5.40;99.90;;;;;;6249662;23;19998;-84
2023/01/02 14:56:22;;;;;;;18.10;8.43;;;5.30;99.90;;;;;;6228937;23;20070;-82
2023/01/02 14:58:55;;;;;;;23.95;10.10;;;5.40;99.90;;;;;;6274755;23;20066;-82
2023/01/02 15:01:34;;;;;;;15.98;8.50;;;5.40;99.90;;;;;;6257148;23;20063;-84
2023/01/02 15:04:18;;;;;;;13.18;8.20;;;5.40;99.90;;;;;;6283722;23;20054;-85
2023/01/02 15:07:15;;;;;;;14.00;8.93;;;5.40;99.90;;;;;;6244082;23;20071;-82
2023/01/02 15:09:51;;;;;;;16.98;9.15;;;5.40;99.90;;;;;;6261481;23;20054;-82
2023/01/02 15:15:24;;;;;;;18.42;9.25;;;5.50;99.90;;;;;;6282296;23;20336;-82
2023/01/02 15:18:19;;;;;;;20.17;11.07;;;5.50;99.90;;;;;;6281727;23;20058;-82
2023/01/02 15:20:54;;;;;;;14.93;9.25;;;5.20;99.90;;;;;;6262129;23;20104;-85
2023/01/02 15:23:32;;;;;;;17.75;9.60;;;5.20;99.90;;;;;;6287571;23;20414;-82
2023/01/02 15:26:28;;;;;;;17.25;8.85;;;5.00;99.90;;;;;;6266823;23;20047;-86
2023/01/02 15:29:06;;;;;;;15.60;8.95;;;5.00;99.90;;;;;;6264687;23;20054;-87
2023/01/02 15:31:38;;;;;;;19.58;9.77;;;5.00;99.90;;;;;;6292742;23;20051;-85
2023/01/02 15:34:09;;;;;;;19.73;9.25;;;5.00;99.90;;;;;;6270760;23;20051;-87
2023/01/02 15:36:44;;;;;;;17.83;9.55;;;5.00;99.90;;;;;;6260240;22;20189;-87
2023/01/02 15:39:18;;;;;;;18.60;10.15;;;5.00;99.90;;;;;;6244599;22;20115;-86
2023/01/02 15:41:51;;;;;;;;;;;5.00;99.90;;;;;;6229911;22;20472;-81
2023/01/02 15:47:22;;;;;;;13.93;7.63;;;5.10;99.90;;;;;;6289326;23;20054;-89
2023/01/02 15:49:55;;;;;;;18.10;8.90;;;5.20;99.90;;;;;;6287099;23;20494;-85
2023/01/02 15:52:30;;;;;;;19.67;8.98;;;5.30;99.90;;;;;;6287953;23;20050;-85
2023/01/02 15:55:02;;;;;;;19.00;8.70;;;5.30;99.90;;;;;;6286680;23;20117;-84
2023/01/02 15:57:33;;;;;;;17.58;9.25;;;5.30;99.90;;;;;;6283095;23;20050;-84
2023/01/02 16:00:27;;;;;;;22.17;10.05;;;5.30;99.90;;;;;;6261771;23;20268;-85
2023/01/02 16:03:02;;;;;;;18.65;9.02;;;5.30;99.90;;;;;;6282812;23;20061;-83
2023/01/02 16:05:55;;;;;;;18.38;9.35;;;5.40;99.90;;;;;;6264831;23;20025;-83
2023/01/02 16:08:31;;;;;;;16.55;8.75;;;5.40;99.90;;;;;;6254463;23;20452;-80
2023/01/02 16:11:05;;;;;;;21.38;9.68;;;5.40;99.90;;;;;;6277445;23;20069;-80
2023/01/02 16:14:19;;;;;;;18.55;9.93;;;5.40;99.90;;;;;;6255393;23;20059;-79
2023/01/02 16:17:19;;;;;;;15.30;9.25;;;5.50;99.90;;;;;;6270270;23;20078;-80
2023/01/02 16:20:15;;;;;;;13.85;7.72;;;5.50;99.90;;;;;;6242519;23;20013;-83
2023/01/02 16:22:54;;;;;;;15.32;8.77;;;5.60;99.90;;;;;;6264019;23;20385;-83
2023/01/02 16:25:29;;;;;;;16.08;9.30;;;5.60;99.90;;;;;;6277179;23;20477;-85
2023/01/02 16:28:07;;;;;;;17.45;10.10;;;5.60;99.90;;;;;;6278260;23;20062;-80
2023/01/02 16:30:48;;;;;;;15.13;9.07;;;5.60;99.90;;;;;;6277938;23;20049;-84
2023/01/02 16:33:22;;;;;;;19.05;10.23;;;5.60;99.90;;;;;;6355486;23;20007;-80
2023/01/02 16:36:05;;;;;;;20.17;9.27;;;5.70;99.90;;;;;;6252235;23;20082;-82
2023/01/02 16:39:01;;;;;;;19.73;9.18;;;5.60;99.90;;;;;;6279228;23;20050;-76
2023/01/02 16:42:33;;;;;;;15.57;9.52;;;5.80;99.90;;;;;;6278416;23;20050;-84
2023/01/02 16:44:55;;;;;;;14.50;7.30;;;5.80;99.90;;;;;;6303577;23;20054;-81
2023/01/02 16:47:38;;;;;;;15.98;8.75;;;5.80;99.90;;;;;;6281501;23;20082;-80
2023/01/02 16:50:23;;;;;;;14.93;8.07;;;5.90;99.90;;;;;;6279748;23;20054;-80
2023/01/02 16:53:01;;;;;;;16.65;7.40;;;5.80;99.90;;;;;;6277833;23;20011;-82
2023/01/02 16:55:34;;;;;;;19.27;8.52;;;5.90;99.90;;;;;;6281188;23;20062;-79
2023/01/02 16:58:08;;;;;;;14.57;7.70;;;5.90;99.90;;;;;;6303503;23;20054;-82
2023/01/02 17:00:39;;;;;;;14.33;7.70;;;5.90;99.90;;;;;;6278076;23;20328;-82
2023/01/02 17:03:24;;;;;;;16.45;9.68;;;6.00;99.90;;;;;;6252775;23;20296;-82
2023/01/02 17:06:03;;;;;;;113.28;40.88;;;6.00;99.90;;;;;;6277924;23;20066;-81
2023/01/02 17:08:44;;;;;;;85.68;34.58;;;6.00;99.90;;;;;;6283835;23;20042;-83
2023/01/02 17:11:20;;;;;;;46.13;21.08;;;6.00;99.90;;;;;;6260333;23;20054;-86
2023/01/02 17:13:54;;;;;;;27.88;13.77;;;5.90;99.90;;;;;;6263097;23;20078;-83
2023/01/02 17:16:29;;;;;;;21.88;10.73;;;5.80;99.90;;;;;;6286429;23;20040;-82
2023/01/02 17:19:03;;;;;;;25.85;13.40;;;5.70;99.90;;;;;;6260700;23;20119;-82
2023/01/02 17:21:34;;;;;;;23.00;13.10;;;5.70;99.90;;;;;;6262468;23;20042;-86
2023/01/02 17:24:11;;;;;;;22.55;12.80;;;5.60;99.90;;;;;;6266865;23;20055;-87
2023/01/02 17:26:45;;;;;;;26.42;13.02;;;5.50;99.90;;;;;;6231819;23;20054;-79
2023/01/02 17:29:18;;;;;;;25.70;12.05;;;5.40;99.90;;;;;;6254679;23;20066;-83
2023/01/02 17:31:51;;;;;;;18.73;10.73;;;5.40;99.90;;;;;;6363095;23;20076;-81
2023/01/02 17:34:27;;;;;;;21.03;10.83;;;5.30;99.90;;;;;;6253680;23;20073;-79
2023/01/02 17:36:58;;;;;;;17.33;9.48;;;5.40;99.90;;;;;;6253050;23;20058;-77
2023/01/02 17:39:32;;;;;;;15.63;8.57;;;5.40;99.90;;;;;;6251099;23;19999;-78
2023/01/02 17:42:05;;;;;;;16.65;8.70;;;5.40;99.90;;;;;;6254129;23;20412;-79
2023/01/02 17:44:37;;;;;;;17.15;8.82;;;5.40;99.90;;;;;;6278227;23;20085;-79
2023/01/02 17:47:08;;;;;;;19.42;10.05;;;5.30;99.90;;;;;;6276265;23;20368;-80
2023/01/02 17:49:41;;;;;;;17.50;8.75;;;5.30;99.90;;;;;;6278291;23;20062;-80
2023/01/02 17:52:13;;;;;;;17.38;8.73;;;5.30;99.90;;;;;;6279062;23;20073;-76
2023/01/02 17:54:50;;;;;;;16.48;9.55;;;5.30;99.90;;;;;;6255580;23;20058;-78
2023/01/02 17:57:22;;;;;;;17.50;8.90;;;5.20;99.90;;;;;;6351337;23;20079;-81
2023/01/02 17:59:54;;;;;;;12.68;8.10;;;5.20;99.90;;;;;;6279169;23;20054;-79
2023/01/02 18:02:25;;;;;;;20.88;10.10;;;5.20;99.90;;;;;;6254115;23;20066;-79
2023/01/02 18:04:56;;;;;;;17.48;8.80;;;5.20;99.90;;;;;;6246798;23;20074;-77
2023/01/02 18:07:28;;;;;;;17.75;8.20;;;5.20;99.90;;;;;;6254834;23;20058;-79
2023/01/02 18:09:59;;;;;;;13.73;7.10;;;5.20;99.90;;;;;;6255776;23;20054;-83
2023/01/02 18:12:31;;;;;;;12.00;6.82;;;5.20;99.90;;;;;;6304255;23;19999;-81
2023/01/02 18:15:12;;;;;;;13.35;7.15;;;5.10;99.90;;;;;;6258131;23;20090;-83
2023/01/02 18:17:51;;;;;;;15.05;8.45;;;5.00;99.90;;;;;;6278978;23;20340;-82
2023/01/02 18:20:24;;;;;;;11.88;6.60;;;5.10;99.90;;;;;;6279202;23;20046;-81
2023/01/02 18:23:00;;;;;;;14.50;7.90;;;5.00;99.90;;;;;;6278387;23;20319;-81
2023/01/02 18:25:31;;;;;;;16.77;8.30;;;5.00;99.90;;;;;;6282859;23;20061;-80
2023/01/02 18:28:31;;;;;;;16.88;9.35;;;5.00;99.90;;;;;;6382843;23;20079;-84
2023/01/02 18:31:19;;;;;;;20.70;9.25;;;5.00;99.90;;;;;;6258012;23;20055;-80
2023/01/02 18:33:57;;;;;;;27.23;13.50;;;5.00;99.90;;;;;;6281058;23;20063;-78
2023/01/02 18:36:45;;;;;;;25.15;12.15;;;5.00;99.90;;;;;;6233729;23;20058;-82
2023/01/02 18:39:34;;;;;;;21.75;10.73;;;4.90;99.90;;;;;;6257596;23;20053;-79
2023/01/02 18:42:13;;;;;;;26.25;11.25;;;4.90;99.90;;;;;;6282829;23;20054;-81
2023/01/02 18:44:44;;;;;;;26.27;11.38;;;4.90;99.90;;;;;;6256873;23;20444;-80
2023/01/02 18:47:35;;;;;;;25.77;11.98;;;4.90;99.90;;;;;;6255989;23;20050;-81
2023/01/02 18:50:13;;;;;;;28.83;12.05;;;4.90;99.90;;;;;;6255482;23;20049;-79
2023/01/02 18:52:46;;;;;;;30.60;13.50;;;4.90;99.90;;;;;;6254189;23;20009;-79
2023/01/02 18:55:30;;;;;;;25.33;13.35;;;4.90;99.90;;;;;;6253049;23;20050;-83
2023/01/02 18:58:09;;;;;;;20.70;11.88;;;4.80;99.90;;;;;;6254645;23;20470;-82
2023/01/02 19:00:46;;;;;;;25.08;11.32;;;4.90;99.90;;;;;;6252952;23;20360;-79
2023/01/02 19:03:36;;;;;;;20.70;10.48;;;4.80;99.90;;;;;;6277660;23;20058;-81
2023/01/02 19:06:17;;;;;;;24.13;11.27;;;4.80;99.90;;;;;;6365190;23;20092;-81
2023/01/02 19:08:49;;;;;;;21.45;11.68;;;4.80;99.90;;;;;;6255987;23;20062;-83
2023/01/02 19:14:24;;;;;;;17.15;10.20;;;4.70;99.90;;;;;;6280666;23;20062;-81
2023/01/02 19:17:36;;;;;;;20.55;9.85;;;4.70;99.90;;;;;;6255862;23;20412;-84
2023/01/02 19:20:14;;;;;;;18.02;9.00;;;4.70;99.90;;;;;;6279888;23;20062;-80
2023/01/02 19:22:46;;;;;;;18.95;10.27;;;4.70;99.90;;;;;;6278524;23;20062;-82
2023/01/02 19:25:22;;;;;;;19.27;10.48;;;4.70;99.90;;;;;;6254677;23;20263;-82
2023/01/02 19:27:57;;;;;;;20.77;11.25;;;4.70;99.90;;;;;;6255498;23;20058;-81
2023/01/02 19:30:33;;;;;;;22.13;11.80;;;4.70;99.90;;;;;;6254585;23;20105;-77
2023/01/02 19:33:38;;;;;;;21.77;11.93;;;4.70;99.90;;;;;;6254017;23;20463;-81
2023/01/02 19:36:20;;;;;;;24.40;10.93;;;4.70;99.90;;;;;;6278199;23;20062;-80
2023/01/02 19:38:54;;;;;;;18.30;10.45;;;4.70;99.90;;;;;;6248632;23;20565;-82
2023/01/02 19:44:17;;;;;;;21.35;10.88;;;4.60;99.90;;;;;;6281421;23;20062;-83
2023/01/02 19:46:48;;;;;;;20.00;10.48;;;4.60;99.90;;;;;;6256632;23;20142;-83
2023/01/02 19:49:19;;;;;;;21.45;11.93;;;4.50;99.90;;;;;;6253874;23;20058;-84
2023/01/02 19:51:54;;;;;;;22.17;11.55;;;4.40;99.90;;;;;;6256173;23;20067;-82
2023/01/02 19:54:25;;;;;;;19.92;11.40;;;4.40;99.90;;;;;;6254573;23;20009;-81
2023/01/02 19:56:56;;;;;;;22.70;12.50;;;4.30;99.90;;;;;;6253695;23;20051;-79
2023/01/02 19:59:27;;;;;;;17.63;10.18;;;4.20;99.90;;;;;;6236349;23;20245;-84
2023/01/02 20:01:59;;;;;;;18.05;10.30;;;4.20;99.90;;;;;;6244819;23;20009;-82
2023/01/02 20:04:30;;;;;;;19.90;10.05;;;4.20;99.90;;;;;;6235818;22;20345;-83
2023/01/02 20:07:01;;;;;;;24.05;12.13;;;4.10;99.90;;;;;;6266324;23;20001;-79
2023/01/02 20:09:36;;;;;;;19.58;11.05;;;4.10;99.90;;;;;;6244233;23;20062;-83
2023/01/02 20:15:06;;;;;;;21.08;11.40;;;4.00;99.90;;;;;;6268239;23;19936;-82
2023/01/02 20:17:39;;;;;;;23.40;11.70;;;4.00;99.90;;;;;;6243465;23;20013;-84
2023/01/02 20:20:22;;;;;;;24.20;12.23;;;4.20;99.90;;;;;;6236288;23;20009;-85
2023/01/02 20:22:56;;;;;;;23.58;11.80;;;4.20;99.90;;;;;;6238777;23;20007;-83
2023/01/02 20:25:30;;;;;;;18.05;10.32;;;4.20;99.90;;;;;;6243354;23;19999;-84
2023/01/02 20:28:04;;;;;;;18.23;11.05;;;4.20;99.90;;;;;;6243006;23;20050;-84
2023/01/02 20:30:35;;;;;;;20.67;10.20;;;4.20;99.90;;;;;;6242833;23;20003;-80
2023/01/02 20:33:09;;;;;;;19.48;10.48;;;4.10;99.90;;;;;;6266450;23;20021;-84
2023/01/02 20:35:41;;;;;;;19.95;10.63;;;4.00;99.90;;;;;;6267964;23;20003;-81
2023/01/02 20:38:18;;;;;;;18.33;10.18;;;3.80;99.90;;;;;;6243286;23;20563;-83
2023/01/02 20:40:51;;;;;;;18.85;10.35;;;3.80;99.90;;;;;;6251391;23;20054;-80
2023/01/02 20:43:25;;;;;;;22.73;11.00;;;3.60;99.90;;;;;;6260729;23;20003;-84
2023/01/02 20:45:59;;;;;;;22.42;11.38;;;3.60;99.90;;;;;;6242994;23;19998;-81
2023/01/02 20:48:33;;;;;;;23.25;12.25;;;3.60;99.90;;;;;;6240834;23;20005;-81
2023/01/02 20:51:04;;;;;;;20.75;11.55;;;3.60;99.90;;;;;;6242586;23;20232;-81
2023/01/02 20:53:35;;;;;;;23.52;11.50;;;3.60;99.90;;;;;;6243898;23;20017;-82
2023/01/02 20:56:09;;;;;;;22.23;12.20;;;3.60;99.90;;;;;;6241737;23;20005;-80
2023/01/02 20:58:43;;;;;;;23.95;13.10;;;3.40;99.90;;;;;;6245145;23;20206;-83
2023/01/02 21:01:14;;;;;;;22.85;12.95;;;3.30;99.90;;;;;;6247093;23;20054;-83
2023/01/02 21:03:46;;;;;;;26.58;12.18;;;3.20;99.90;;;;;;6245656;23;20069;-79
2023/01/02 21:06:20;;;;;;;25.60;14.30;;;3.20;99.90;;;;;;6259916;23;20093;-81
2023/01/02 21:08:54;;;;;;;29.88;14.52;;;3.20;99.90;;;;;;6260339;23;20003;-79
2023/01/02 21:11:26;;;;;;;43.97;19.23;;;3.10;99.90;;;;;;6248138;23;20328;-79
2023/01/02 21:14:03;;;;;;;46.58;22.10;;;3.00;99.90;;;;;;6244843;23;20205;-82
2023/01/02 21:16:34;;;;;;;37.88;17.55;;;3.10;99.90;;;;;;6222624;23;20349;-77
2023/01/02 21:19:08;;;;;;;25.48;13.40;;;3.00;99.90;;;;;;6228836;23;20581;-86
2023/01/02 21:21:39;;;;;;;29.10;13.25;;;3.00;99.90;;;;;;6224680;23;19995;-81
2023/01/02 21:24:10;;;;;;;33.05;13.60;;;2.90;99.90;;;;;;6277264;23;20405;-81
2023/01/02 21:26:42;;;;;;;22.80;13.10;;;2.80;99.90;;;;;;6255269;23;20054;-81
2023/01/02 21:29:14;;;;;;;54.92;20.30;;;2.80;99.90;;;;;;6253806;23;20042;-79
2023/01/02 21:31:48;;;;;;;61.92;23.60;;;2.70;99.90;;;;;;6304534;23;20044;-63
2023/01/02 21:34:19;;;;;;;47.90;18.13;;;2.70;99.90;;;;;;6364726;23;20641;-62
2023/01/02 21:36:55;;;;;;;29.67;13.65;;;2.60;99.90;;;;;;6299029;23;20018;-65
2023/01/02 21:39:29;;;;;;;22.27;13.10;;;2.60;99.90;;;;;;6260483;23;20002;-64
2023/01/02 21:42:15;;;;;;;24.65;13.25;;;2.50;99.90;;;;;;6237905;23;20002;-62
2023/01/02 21:44:49;;;;;;;28.60;13.68;;;2.50;99.90;;;;;;6238964;23;20176;-65
2023/01/02 21:47:20;;;;;;;;;;;2.50;99.90;;;;;;6239383;23;20002;-64
2023/01/02 21:49:51;;;;;;;21.80;11.93;;;2.50;99.90;;;;;;6261461;23;20283;-64
2023/01/02 21:52:23;;;;;;;24.20;12.20;;;2.60;99.90;;;;;;6238579;23;20054;-63
2023/01/02 21:55:00;;;;;;;20.50;10.98;;;2.70;99.90;;;;;;6239816;23;20005;-64
2023/01/02 21:57:32;;;;;;;21.98;11.60;;;2.80;99.90;;;;;;6255215;23;20556;-64
2023/01/02 22:00:04;;;;;;;25.55;10.77;;;2.90;99.90;;;;;;6232822;23;20345;-66
2023/01/02 22:02:37;;;;;;;23.65;11.98;;;3.00;99.90;;;;;;6239076;23;20037;-61
2023/01/02 22:05:10;;;;;;;20.38;10.93;;;3.10;99.90;;;;;;6264142;23;20014;-65
2023/01/02 22:07:47;;;;;;;21.42;10.13;;;3.10;99.90;;;;;;6295632;23;19999;-64
2023/01/02 22:10:18;;;;;;;24.10;12.25;;;3.10;99.90;;;;;;6264787;23;20328;-65
2023/01/02 22:12:50;;;;;;;22.27;11.88;;;3.10;99.90;;;;;;6239038;23;20017;-66